sensor_id;sensor_type;location;lat;lon;timestamp;temperature;humidity
30983;DHT22;17660;52.578;13.288;2023-08-21T00:01:29;25.40;96.70
30983;DHT22;17660;52.578;13.288;2023-08-21T00:03:56;25.30;96.70
30983;DHT22;17660;52.578;13.288;2023-08-21T00:06:22;25.30;96.70
30983;DHT22;17660;52.578;13.288;2023-08-21T00:08:49;25.20;96.80
30983;DHT22;17660;52.578;13.288;2023-08-21T00:11:16;25.30;96.90
30983;DHT22;17660;52.578;13.288;2023-08-21T00:13:42;25.30;96.90
30983;DHT22;17660;52.578;13.288;2023-08-21T00:16:11;25.20;96.80
30983;DHT22;17660;52.578;13.288;2023-08-21T00:18:37;25.20;96.90
30983;DHT22;17660;52.578;13.288;2023-08-21T00:21:04;25.20;96.90
30983;DHT22;17660;52.578;13.288;2023-08-21T00:23:31;25.20;96.90
30983;DHT22;17660;52.578;13.288;2023-08-21T00:25:57;25.20;96.90
30983;DHT22;17660;52.578;13.288;2023-08-21T00:28:24;25.10;96.90
30983;DHT22;17660;52.578;13.288;2023-08-21T00:30:51;25.10;97.00
30983;DHT22;17660;52.578;13.288;2023-08-21T00:33:18;25.10;97.10
30983;DHT22;17660;52.578;13.288;2023-08-21T00:35:44;25.10;97.00
30983;DHT22;17660;52.578;13.288;2023-08-21T00:38:11;25.10;97.10
30983;DHT22;17660;52.578;13.288;2023-08-21T00:40:38;25.10;97.20
30983;DHT22;17660;52.578;13.288;2023-08-21T00:43:04;25.10;97.20
30983;DHT22;17660;52.578;13.288;2023-08-21T00:45:31;25.00;97.20
30983;DHT22;17660;52.578;13.288;2023-08-21T00:47:58;25.00;97.20
30983;DHT22;17660;52.578;13.288;2023-08-21T00:50:24;25.00;97.30
30983;DHT22;17660;52.578;13.288;2023-08-21T00:52:51;25.00;97.30
30983;DHT22;17660;52.578;13.288;2023-08-21T00:55:18;24.90;97.40
30983;DHT22;17660;52.578;13.288;2023-08-21T00:57:44;24.90;97.40
30983;DHT22;17660;52.578;13.288;2023-08-21T01:00:12;24.90;97.40
30983;DHT22;17660;52.578;13.288;2023-08-21T01:02:39;24.90;97.40
30983;DHT22;17660;52.578;13.288;2023-08-21T01:05:11;24.90;97.50
30983;DHT22;17660;52.578;13.288;2023-08-21T01:07:50;24.80;97.50
30983;DHT22;17660;52.578;13.288;2023-08-21T01:10:22;24.80;97.40
30983;DHT22;17660;52.578;13.288;2023-08-21T01:12:56;24.80;97.60
30983;DHT22;17660;52.578;13.288;2023-08-21T01:15:26;24.80;97.60
30983;DHT22;17660;52.578;13.288;2023-08-21T01:17:53;24.80;97.60
30983;DHT22;17660;52.578;13.288;2023-08-21T01:20:20;24.80;97.80
30983;DHT22;17660;52.578;13.288;2023-08-21T01:22:47;24.80;97.90
30983;DHT22;17660;52.578;13.288;2023-08-21T01:25:13;24.80;97.90
30983;DHT22;17660;52.578;13.288;2023-08-21T01:27:48;24.70;98.00
30983;DHT22;17660;52.578;13.288;2023-08-21T01:30:16;24.70;98.00
30983;DHT22;17660;52.578;13.288;2023-08-21T01:32:56;24.80;97.90
30983;DHT22;17660;52.578;13.288;2023-08-21T01:35:26;24.70;97.90
30983;DHT22;17660;52.578;13.288;2023-08-21T01:37:52;24.70;97.90
30983;DHT22;17660;52.578;13.288;2023-08-21T01:40:20;24.70;98.00
30983;DHT22;17660;52.578;13.288;2023-08-21T01:42:47;24.70;98.20
30983;DHT22;17660;52.578;13.288;2023-08-21T01:45:13;24.70;97.90
30983;DHT22;17660;52.578;13.288;2023-08-21T01:47:40;24.70;98.00
30983;DHT22;17660;52.578;13.288;2023-08-21T01:50:07;24.70;97.90
30983;DHT22;17660;52.578;13.288;2023-08-21T01:52:33;24.70;98.00
30983;DHT22;17660;52.578;13.288;2023-08-21T01:55:00;24.60;97.90
30983;DHT22;17660;52.578;13.288;2023-08-21T01:57:27;24.70;97.90
30983;DHT22;17660;52.578;13.288;2023-08-21T01:59:54;24.70;97.90
30983;DHT22;17660;52.578;13.288;2023-08-21T02:02:20;24.60;97.90
30983;DHT22;17660;52.578;13.288;2023-08-21T02:04:47;24.60;98.10
30983;DHT22;17660;52.578;13.288;2023-08-21T02:07:13;24.60;97.90
30983;DHT22;17660;52.578;13.288;2023-08-21T02:09:40;24.70;97.90
30983;DHT22;17660;52.578;13.288;2023-08-21T02:12:07;24.70;97.80
30983;DHT22;17660;52.578;13.288;2023-08-21T02:14:34;24.70;97.90
30983;DHT22;17660;52.578;13.288;2023-08-21T02:17:00;24.60;97.70
30983;DHT22;17660;52.578;13.288;2023-08-21T02:19:28;24.60;97.60
30983;DHT22;17660;52.578;13.288;2023-08-21T02:21:54;24.60;97.90
30983;DHT22;17660;52.578;13.288;2023-08-21T02:24:21;24.60;97.90
30983;DHT22;17660;52.578;13.288;2023-08-21T02:26:48;24.60;98.00
30983;DHT22;17660;52.578;13.288;2023-08-21T02:29:14;24.60;97.90
30983;DHT22;17660;52.578;13.288;2023-08-21T02:31:41;24.60;97.80
30983;DHT22;17660;52.578;13.288;2023-08-21T02:34:08;24.60;97.90
30983;DHT22;17660;52.578;13.288;2023-08-21T02:36:34;24.60;97.70
30983;DHT22;17660;52.578;13.288;2023-08-21T02:39:01;24.60;97.90
30983;DHT22;17660;52.578;13.288;2023-08-21T02:41:30;24.50;97.60
30983;DHT22;17660;52.578;13.288;2023-08-21T02:43:56;24.50;97.70
30983;DHT22;17660;52.578;13.288;2023-08-21T02:46:23;24.40;98.00
30983;DHT22;17660;52.578;13.288;2023-08-21T02:48:50;24.40;98.00
30983;DHT22;17660;52.578;13.288;2023-08-21T02:51:16;24.40;98.00
30983;DHT22;17660;52.578;13.288;2023-08-21T02:53:43;24.50;98.00
30983;DHT22;17660;52.578;13.288;2023-08-21T02:56:10;24.50;98.10
30983;DHT22;17660;52.578;13.288;2023-08-21T02:58:36;24.50;98.10
30983;DHT22;17660;52.578;13.288;2023-08-21T03:01:03;24.50;97.90
30983;DHT22;17660;52.578;13.288;2023-08-21T03:03:30;24.50;97.90
30983;DHT22;17660;52.578;13.288;2023-08-21T03:05:56;24.50;98.00
30983;DHT22;17660;52.578;13.288;2023-08-21T03:08:23;24.50;98.00
30983;DHT22;17660;52.578;13.288;2023-08-21T03:10:50;24.50;98.00
30983;DHT22;17660;52.578;13.288;2023-08-21T03:13:16;24.50;97.70
30983;DHT22;17660;52.578;13.288;2023-08-21T03:15:45;24.50;97.70
30983;DHT22;17660;52.578;13.288;2023-08-21T03:18:12;24.50;97.80
30983;DHT22;17660;52.578;13.288;2023-08-21T03:20:44;24.40;97.80
30983;DHT22;17660;52.578;13.288;2023-08-21T03:23:10;24.40;97.90
30983;DHT22;17660;52.578;13.288;2023-08-21T03:25:37;24.50;97.90
30983;DHT22;17660;52.578;13.288;2023-08-21T03:28:04;24.50;97.70
30983;DHT22;17660;52.578;13.288;2023-08-21T03:30:31;24.40;97.80
30983;DHT22;17660;52.578;13.288;2023-08-21T03:32:57;24.40;97.60
30983;DHT22;17660;52.578;13.288;2023-08-21T03:35:24;24.40;97.70
30983;DHT22;17660;52.578;13.288;2023-08-21T03:37:51;24.40;97.60
30983;DHT22;17660;52.578;13.288;2023-08-21T03:40:17;24.40;97.70
30983;DHT22;17660;52.578;13.288;2023-08-21T03:42:44;24.40;97.80
30983;DHT22;17660;52.578;13.288;2023-08-21T03:45:11;24.40;98.00
30983;DHT22;17660;52.578;13.288;2023-08-21T03:47:37;24.40;98.10
30983;DHT22;17660;52.578;13.288;2023-08-21T03:50:04;24.40;98.00
30983;DHT22;17660;52.578;13.288;2023-08-21T03:52:31;24.40;98.00
30983;DHT22;17660;52.578;13.288;2023-08-21T03:54:58;24.40;98.10
30983;DHT22;17660;52.578;13.288;2023-08-21T03:57:24;24.30;98.10
30983;DHT22;17660;52.578;13.288;2023-08-21T03:59:51;24.30;98.00
30983;DHT22;17660;52.578;13.288;2023-08-21T04:02:17;24.30;98.00
30983;DHT22;17660;52.578;13.288;2023-08-21T04:04:44;24.20;98.00
30983;DHT22;17660;52.578;13.288;2023-08-21T04:07:11;24.30;98.20
30983;DHT22;17660;52.578;13.288;2023-08-21T04:09:38;24.30;98.30
30983;DHT22;17660;52.578;13.288;2023-08-21T04:12:05;24.20;98.30
30983;DHT22;17660;52.578;13.288;2023-08-21T04:14:32;24.20;98.30
30983;DHT22;17660;52.578;13.288;2023-08-21T04:16:58;24.20;98.30
30983;DHT22;17660;52.578;13.288;2023-08-21T04:19:25;24.20;98.40
30983;DHT22;17660;52.578;13.288;2023-08-21T04:21:56;24.20;98.40
30983;DHT22;17660;52.578;13.288;2023-08-21T04:24:23;24.10;98.40
30983;DHT22;17660;52.578;13.288;2023-08-21T04:26:49;24.10;98.40
30983;DHT22;17660;52.578;13.288;2023-08-21T04:29:16;24.10;98.30
30983;DHT22;17660;52.578;13.288;2023-08-21T04:31:43;24.10;98.40
30983;DHT22;17660;52.578;13.288;2023-08-21T04:34:09;24.10;98.40
30983;DHT22;17660;52.578;13.288;2023-08-21T04:36:36;24.10;98.40
30983;DHT22;17660;52.578;13.288;2023-08-21T04:39:03;24.00;98.50
30983;DHT22;17660;52.578;13.288;2023-08-21T04:41:29;24.10;98.60
30983;DHT22;17660;52.578;13.288;2023-08-21T04:43:56;24.10;98.70
30983;DHT22;17660;52.578;13.288;2023-08-21T04:46:22;24.10;98.80
30983;DHT22;17660;52.578;13.288;2023-08-21T04:48:49;24.10;98.90
30983;DHT22;17660;52.578;13.288;2023-08-21T04:51:16;24.10;98.60
30983;DHT22;17660;52.578;13.288;2023-08-21T04:53:42;24.10;99.00
30983;DHT22;17660;52.578;13.288;2023-08-21T04:56:09;24.10;99.00
30983;DHT22;17660;52.578;13.288;2023-08-21T04:58:36;24.00;99.10
30983;DHT22;17660;52.578;13.288;2023-08-21T05:01:04;24.10;99.20
30983;DHT22;17660;52.578;13.288;2023-08-21T05:03:31;24.10;99.40
30983;DHT22;17660;52.578;13.288;2023-08-21T05:05:57;24.10;99.50
30983;DHT22;17660;52.578;13.288;2023-08-21T05:08:24;24.00;99.50
30983;DHT22;17660;52.578;13.288;2023-08-21T05:10:55;24.10;99.60
30983;DHT22;17660;52.578;13.288;2023-08-21T05:13:22;24.10;99.80
30983;DHT22;17660;52.578;13.288;2023-08-21T05:15:55;24.10;99.90
30983;DHT22;17660;52.578;13.288;2023-08-21T05:18:23;24.10;99.90
30983;DHT22;17660;52.578;13.288;2023-08-21T05:20:50;24.20;99.70
30983;DHT22;17660;52.578;13.288;2023-08-21T05:23:17;24.10;99.90
30983;DHT22;17660;52.578;13.288;2023-08-21T05:25:44;24.20;99.90
30983;DHT22;17660;52.578;13.288;2023-08-21T05:28:11;24.20;99.90
30983;DHT22;17660;52.578;13.288;2023-08-21T05:30:38;24.20;99.90
30983;DHT22;17660;52.578;13.288;2023-08-21T05:33:04;24.20;99.90
30983;DHT22;17660;52.578;13.288;2023-08-21T05:35:37;24.20;99.90
30983;DHT22;17660;52.578;13.288;2023-08-21T05:38:05;24.20;99.80
30983;DHT22;17660;52.578;13.288;2023-08-21T05:40:32;24.20;99.80
30983;DHT22;17660;52.578;13.288;2023-08-21T05:42:58;24.20;99.70
30983;DHT22;17660;52.578;13.288;2023-08-21T05:45:25;24.10;99.60
30983;DHT22;17660;52.578;13.288;2023-08-21T05:47:52;24.20;99.90
30983;DHT22;17660;52.578;13.288;2023-08-21T05:50:18;24.20;99.90
30983;DHT22;17660;52.578;13.288;2023-08-21T05:52:45;24.20;99.90
30983;DHT22;17660;52.578;13.288;2023-08-21T05:55:12;24.20;99.90
30983;DHT22;17660;52.578;13.288;2023-08-21T05:57:39;24.20;99.90
30983;DHT22;17660;52.578;13.288;2023-08-21T06:00:05;24.20;99.90
30983;DHT22;17660;52.578;13.288;2023-08-21T06:02:35;24.30;99.90
30983;DHT22;17660;52.578;13.288;2023-08-21T06:05:02;24.30;99.90
30983;DHT22;17660;52.578;13.288;2023-08-21T06:07:29;24.30;99.90
30983;DHT22;17660;52.578;13.288;2023-08-21T06:09:56;24.30;99.90
30983;DHT22;17660;52.578;13.288;2023-08-21T06:12:22;24.30;99.90
30983;DHT22;17660;52.578;13.288;2023-08-21T06:14:49;24.40;99.90
30983;DHT22;17660;52.578;13.288;2023-08-21T06:17:16;24.40;99.90
30983;DHT22;17660;52.578;13.288;2023-08-21T06:19:43;24.40;99.90
30983;DHT22;17660;52.578;13.288;2023-08-21T06:22:10;24.40;99.90
30983;DHT22;17660;52.578;13.288;2023-08-21T06:24:37;24.40;99.90
30983;DHT22;17660;52.578;13.288;2023-08-21T06:27:03;24.40;99.90
30983;DHT22;17660;52.578;13.288;2023-08-21T06:29:33;24.40;99.90
30983;DHT22;17660;52.578;13.288;2023-08-21T06:32:00;24.40;99.90
30983;DHT22;17660;52.578;13.288;2023-08-21T06:34:27;24.40;99.90
30983;DHT22;17660;52.578;13.288;2023-08-21T06:36:53;24.40;99.90
30983;DHT22;17660;52.578;13.288;2023-08-21T06:39:20;24.40;99.90
30983;DHT22;17660;52.578;13.288;2023-08-21T06:41:47;24.50;99.90
30983;DHT22;17660;52.578;13.288;2023-08-21T06:44:13;24.50;99.90
30983;DHT22;17660;52.578;13.288;2023-08-21T06:46:40;24.50;99.90
30983;DHT22;17660;52.578;13.288;2023-08-21T06:49:07;24.50;99.90
30983;DHT22;17660;52.578;13.288;2023-08-21T06:51:34;24.60;99.90
30983;DHT22;17660;52.578;13.288;2023-08-21T06:54:00;24.60;99.90
30983;DHT22;17660;52.578;13.288;2023-08-21T06:56:27;24.60;99.90
30983;DHT22;17660;52.578;13.288;2023-08-21T06:58:53;24.60;99.90
30983;DHT22;17660;52.578;13.288;2023-08-21T07:01:21;24.70;99.90
30983;DHT22;17660;52.578;13.288;2023-08-21T07:03:48;24.60;99.90
30983;DHT22;17660;52.578;13.288;2023-08-21T07:06:15;24.60;99.90
30983;DHT22;17660;52.578;13.288;2023-08-21T07:08:41;24.60;99.90
30983;DHT22;17660;52.578;13.288;2023-08-21T07:11:08;24.70;99.90
30983;DHT22;17660;52.578;13.288;2023-08-21T07:13:36;24.70;99.90
30983;DHT22;17660;52.578;13.288;2023-08-21T07:16:03;24.70;99.90
30983;DHT22;17660;52.578;13.288;2023-08-21T07:18:34;24.70;99.90
30983;DHT22;17660;52.578;13.288;2023-08-21T07:21:04;24.70;99.90
30983;DHT22;17660;52.578;13.288;2023-08-21T07:23:44;24.70;99.90
30983;DHT22;17660;52.578;13.288;2023-08-21T07:26:11;24.70;99.90
30983;DHT22;17660;52.578;13.288;2023-08-21T07:28:37;24.70;99.90
30983;DHT22;17660;52.578;13.288;2023-08-21T07:31:04;24.70;99.90
30983;DHT22;17660;52.578;13.288;2023-08-21T07:33:31;24.80;99.90
30983;DHT22;17660;52.578;13.288;2023-08-21T07:36:02;24.70;99.90
30983;DHT22;17660;52.578;13.288;2023-08-21T07:38:29;24.80;99.90
30983;DHT22;17660;52.578;13.288;2023-08-21T07:41:10;24.80;99.90
30983;DHT22;17660;52.578;13.288;2023-08-21T07:43:37;24.80;99.90
30983;DHT22;17660;52.578;13.288;2023-08-21T07:46:04;24.80;99.90
30983;DHT22;17660;52.578;13.288;2023-08-21T07:48:31;24.80;99.90
30983;DHT22;17660;52.578;13.288;2023-08-21T07:50:58;24.80;99.90
30983;DHT22;17660;52.578;13.288;2023-08-21T07:53:25;24.90;99.90
30983;DHT22;17660;52.578;13.288;2023-08-21T07:55:52;24.90;99.90
30983;DHT22;17660;52.578;13.288;2023-08-21T07:58:19;24.90;99.90
30983;DHT22;17660;52.578;13.288;2023-08-21T08:00:46;24.90;99.90
30983;DHT22;17660;52.578;13.288;2023-08-21T08:03:13;25.00;99.90
30983;DHT22;17660;52.578;13.288;2023-08-21T08:05:41;24.90;99.90
30983;DHT22;17660;52.578;13.288;2023-08-21T08:08:20;25.00;99.90
30983;DHT22;17660;52.578;13.288;2023-08-21T08:10:47;24.90;98.80
30983;DHT22;17660;52.578;13.288;2023-08-21T08:13:13;24.90;99.90
30983;DHT22;17660;52.578;13.288;2023-08-21T08:15:43;25.00;99.90
30983;DHT22;17660;52.578;13.288;2023-08-21T08:18:12;25.00;99.40
30983;DHT22;17660;52.578;13.288;2023-08-21T08:20:40;24.90;99.90
30983;DHT22;17660;52.578;13.288;2023-08-21T08:23:06;25.00;99.80
30983;DHT22;17660;52.578;13.288;2023-08-21T08:25:33;24.90;98.50
30983;DHT22;17660;52.578;13.288;2023-08-21T08:28:00;24.90;95.70
30983;DHT22;17660;52.578;13.288;2023-08-21T08:30:27;24.80;96.90
30983;DHT22;17660;52.578;13.288;2023-08-21T08:32:54;24.90;94.90
30983;DHT22;17660;52.578;13.288;2023-08-21T08:35:20;24.90;98.10
30983;DHT22;17660;52.578;13.288;2023-08-21T08:37:47;24.90;98.90
30983;DHT22;17660;52.578;13.288;2023-08-21T08:40:14;24.90;98.70
30983;DHT22;17660;52.578;13.288;2023-08-21T08:42:40;24.90;94.80
30983;DHT22;17660;52.578;13.288;2023-08-21T08:45:07;24.90;95.50
30983;DHT22;17660;52.578;13.288;2023-08-21T08:47:34;25.00;95.10
30983;DHT22;17660;52.578;13.288;2023-08-21T08:50:02;25.00;96.10
30983;DHT22;17660;52.578;13.288;2023-08-21T08:52:39;25.10;94.80
30983;DHT22;17660;52.578;13.288;2023-08-21T08:55:07;25.00;94.10
30983;DHT22;17660;52.578;13.288;2023-08-21T08:57:34;25.10;92.50
30983;DHT22;17660;52.578;13.288;2023-08-21T09:00:01;25.10;95.60
30983;DHT22;17660;52.578;13.288;2023-08-21T09:02:28;25.10;97.10
30983;DHT22;17660;52.578;13.288;2023-08-21T09:04:55;25.10;92.50
30983;DHT22;17660;52.578;13.288;2023-08-21T09:07:22;25.20;95.80
30983;DHT22;17660;52.578;13.288;2023-08-21T09:09:49;25.20;93.30
30983;DHT22;17660;52.578;13.288;2023-08-21T09:12:17;25.20;94.00
30983;DHT22;17660;52.578;13.288;2023-08-21T09:14:44;25.30;97.20
30983;DHT22;17660;52.578;13.288;2023-08-21T09:17:10;25.30;94.30
30983;DHT22;17660;52.578;13.288;2023-08-21T09:19:37;25.30;92.10
30983;DHT22;17660;52.578;13.288;2023-08-21T09:22:11;25.30;95.40
30983;DHT22;17660;52.578;13.288;2023-08-21T09:24:39;25.40;96.20
30983;DHT22;17660;52.578;13.288;2023-08-21T09:27:15;25.40;96.00
30983;DHT22;17660;52.578;13.288;2023-08-21T09:29:43;25.30;96.60
30983;DHT22;17660;52.578;13.288;2023-08-21T09:32:09;25.30;96.50
30983;DHT22;17660;52.578;13.288;2023-08-21T09:34:37;25.40;96.80
30983;DHT22;17660;52.578;13.288;2023-08-21T09:37:07;25.30;92.90
30983;DHT22;17660;52.578;13.288;2023-08-21T09:39:34;25.40;94.70
30983;DHT22;17660;52.578;13.288;2023-08-21T09:42:08;25.50;93.00
30983;DHT22;17660;52.578;13.288;2023-08-21T09:44:35;25.60;93.80
30983;DHT22;17660;52.578;13.288;2023-08-21T09:47:02;25.70;93.40
30983;DHT22;17660;52.578;13.288;2023-08-21T09:49:30;25.70;92.80
30983;DHT22;17660;52.578;13.288;2023-08-21T09:51:57;25.60;92.00
30983;DHT22;17660;52.578;13.288;2023-08-21T09:54:24;25.80;93.90
30983;DHT22;17660;52.578;13.288;2023-08-21T09:56:51;25.90;93.20
30983;DHT22;17660;52.578;13.288;2023-08-21T09:59:18;25.90;92.50
30983;DHT22;17660;52.578;13.288;2023-08-21T10:01:45;26.10;91.60
30983;DHT22;17660;52.578;13.288;2023-08-21T10:04:12;26.20;90.80
30983;DHT22;17660;52.578;13.288;2023-08-21T10:06:39;26.40;91.80
30983;DHT22;17660;52.578;13.288;2023-08-21T10:09:06;26.60;92.60
30983;DHT22;17660;52.578;13.288;2023-08-21T10:11:34;26.80;91.00
30983;DHT22;17660;52.578;13.288;2023-08-21T10:14:01;26.90;91.50
30983;DHT22;17660;52.578;13.288;2023-08-21T10:16:27;26.90;92.60
30983;DHT22;17660;52.578;13.288;2023-08-21T10:18:54;26.80;92.70
30983;DHT22;17660;52.578;13.288;2023-08-21T10:21:21;26.80;94.10
30983;DHT22;17660;52.578;13.288;2023-08-21T10:23:49;26.70;90.60
30983;DHT22;17660;52.578;13.288;2023-08-21T10:26:18;26.70;92.20
30983;DHT22;17660;52.578;13.288;2023-08-21T10:29:00;26.60;94.00
30983;DHT22;17660;52.578;13.288;2023-08-21T10:31:34;26.50;93.90
30983;DHT22;17660;52.578;13.288;2023-08-21T10:34:03;26.50;92.50
30983;DHT22;17660;52.578;13.288;2023-08-21T10:39:20;26.80;92.40
30983;DHT22;17660;52.578;13.288;2023-08-21T10:41:57;27.10;91.30
30983;DHT22;17660;52.578;13.288;2023-08-21T10:49:59;27.60;90.50
30983;DHT22;17660;52.578;13.288;2023-08-21T10:52:26;27.60;90.00
30983;DHT22;17660;52.578;13.288;2023-08-21T10:54:54;27.70;91.50
30983;DHT22;17660;52.578;13.288;2023-08-21T10:57:28;27.70;93.20
30983;DHT22;17660;52.578;13.288;2023-08-21T11:00:03;27.60;93.50
30983;DHT22;17660;52.578;13.288;2023-08-21T11:02:31;27.50;91.90
30983;DHT22;17660;52.578;13.288;2023-08-21T11:04:58;27.20;90.20
30983;DHT22;17660;52.578;13.288;2023-08-21T11:07:26;27.20;92.60
30983;DHT22;17660;52.578;13.288;2023-08-21T11:09:53;27.00;92.50
30983;DHT22;17660;52.578;13.288;2023-08-21T11:12:20;26.90;92.90
30983;DHT22;17660;52.578;13.288;2023-08-21T11:14:48;26.90;92.70
30983;DHT22;17660;52.578;13.288;2023-08-21T11:17:15;26.90;91.00
30983;DHT22;17660;52.578;13.288;2023-08-21T11:19:42;27.10;91.20
30983;DHT22;17660;52.578;13.288;2023-08-21T11:22:08;27.10;88.30
30983;DHT22;17660;52.578;13.288;2023-08-21T11:24:45;27.10;91.80
30983;DHT22;17660;52.578;13.288;2023-08-21T11:27:13;27.10;91.90
30983;DHT22;17660;52.578;13.288;2023-08-21T11:29:47;27.20;90.50
30983;DHT22;17660;52.578;13.288;2023-08-21T11:32:21;27.20;89.70
30983;DHT22;17660;52.578;13.288;2023-08-21T11:34:49;27.30;89.10
30983;DHT22;17660;52.578;13.288;2023-08-21T11:37:17;27.30;87.70
30983;DHT22;17660;52.578;13.288;2023-08-21T11:39:46;27.40;90.00
30983;DHT22;17660;52.578;13.288;2023-08-21T11:42:13;27.40;90.80
30983;DHT22;17660;52.578;13.288;2023-08-21T11:44:41;27.40;89.00
30983;DHT22;17660;52.578;13.288;2023-08-21T11:47:08;27.30;90.40
30983;DHT22;17660;52.578;13.288;2023-08-21T11:49:41;27.20;92.90
30983;DHT22;17660;52.578;13.288;2023-08-21T11:52:12;27.00;92.20
30983;DHT22;17660;52.578;13.288;2023-08-21T11:54:39;27.10;92.90
30983;DHT22;17660;52.578;13.288;2023-08-21T11:57:07;27.10;92.30
30983;DHT22;17660;52.578;13.288;2023-08-21T11:59:34;27.10;90.00
30983;DHT22;17660;52.578;13.288;2023-08-21T12:02:05;27.00;90.10
30983;DHT22;17660;52.578;13.288;2023-08-21T12:04:34;27.00;91.80
30983;DHT22;17660;52.578;13.288;2023-08-21T12:07:01;27.00;92.30
30983;DHT22;17660;52.578;13.288;2023-08-21T12:09:28;27.00;92.90
30983;DHT22;17660;52.578;13.288;2023-08-21T12:11:54;27.00;93.20
30983;DHT22;17660;52.578;13.288;2023-08-21T12:14:21;27.10;93.30
30983;DHT22;17660;52.578;13.288;2023-08-21T12:16:49;27.10;91.90
30983;DHT22;17660;52.578;13.288;2023-08-21T12:19:16;27.30;91.50
30983;DHT22;17660;52.578;13.288;2023-08-21T12:21:42;27.50;93.10
30983;DHT22;17660;52.578;13.288;2023-08-21T12:24:09;27.50;90.60
30983;DHT22;17660;52.578;13.288;2023-08-21T12:26:36;27.70;90.60
30983;DHT22;17660;52.578;13.288;2023-08-21T12:29:15;28.00;91.20
30983;DHT22;17660;52.578;13.288;2023-08-21T12:31:42;28.50;89.60
30983;DHT22;17660;52.578;13.288;2023-08-21T12:34:09;28.80;88.90
30983;DHT22;17660;52.578;13.288;2023-08-21T12:36:36;29.00;89.50
30983;DHT22;17660;52.578;13.288;2023-08-21T12:39:06;28.90;88.30
30983;DHT22;17660;52.578;13.288;2023-08-21T12:41:33;28.70;82.50
30983;DHT22;17660;52.578;13.288;2023-08-21T12:44:00;28.50;90.50
30983;DHT22;17660;52.578;13.288;2023-08-21T12:46:26;28.20;87.50
30983;DHT22;17660;52.578;13.288;2023-08-21T12:48:54;28.10;84.40
30983;DHT22;17660;52.578;13.288;2023-08-21T12:51:20;28.20;89.80
30983;DHT22;17660;52.578;13.288;2023-08-21T12:53:47;28.20;82.80
30983;DHT22;17660;52.578;13.288;2023-08-21T12:56:14;28.30;88.00
30983;DHT22;17660;52.578;13.288;2023-08-21T12:58:41;28.20;82.20
30983;DHT22;17660;52.578;13.288;2023-08-21T13:01:07;28.10;84.90
30983;DHT22;17660;52.578;13.288;2023-08-21T13:03:35;28.20;84.40
30983;DHT22;17660;52.578;13.288;2023-08-21T13:06:01;28.00;85.10
30983;DHT22;17660;52.578;13.288;2023-08-21T13:08:28;28.10;81.20
30983;DHT22;17660;52.578;13.288;2023-08-21T13:10:55;28.20;81.50
30983;DHT22;17660;52.578;13.288;2023-08-21T13:13:22;28.30;84.60
30983;DHT22;17660;52.578;13.288;2023-08-21T13:15:48;28.20;82.00
30983;DHT22;17660;52.578;13.288;2023-08-21T13:18:17;28.10;83.50
30983;DHT22;17660;52.578;13.288;2023-08-21T13:20:43;27.90;83.30
30983;DHT22;17660;52.578;13.288;2023-08-21T13:23:10;27.80;88.60
30983;DHT22;17660;52.578;13.288;2023-08-21T13:25:37;27.80;84.90
30983;DHT22;17660;52.578;13.288;2023-08-21T13:28:04;27.60;85.60
30983;DHT22;17660;52.578;13.288;2023-08-21T13:30:30;27.60;82.60
30983;DHT22;17660;52.578;13.288;2023-08-21T13:33:00;27.60;83.30
30983;DHT22;17660;52.578;13.288;2023-08-21T13:35:27;27.60;80.90
30983;DHT22;17660;52.578;13.288;2023-08-21T13:37:54;27.50;80.40
30983;DHT22;17660;52.578;13.288;2023-08-21T13:40:20;27.60;83.70
30983;DHT22;17660;52.578;13.288;2023-08-21T13:42:47;28.00;82.10
30983;DHT22;17660;52.578;13.288;2023-08-21T13:45:15;28.20;82.30
30983;DHT22;17660;52.578;13.288;2023-08-21T13:47:43;28.40;83.90
30983;DHT22;17660;52.578;13.288;2023-08-21T13:50:10;28.40;86.70
30983;DHT22;17660;52.578;13.288;2023-08-21T13:52:37;28.40;82.50
30983;DHT22;17660;52.578;13.288;2023-08-21T13:55:06;28.20;79.50
30983;DHT22;17660;52.578;13.288;2023-08-21T13:57:34;28.10;84.50
30983;DHT22;17660;52.578;13.288;2023-08-21T14:00:01;28.10;85.30
30983;DHT22;17660;52.578;13.288;2023-08-21T14:02:32;28.10;86.50
30983;DHT22;17660;52.578;13.288;2023-08-21T14:04:59;28.20;83.90
30983;DHT22;17660;52.578;13.288;2023-08-21T14:07:26;28.30;82.60
30983;DHT22;17660;52.578;13.288;2023-08-21T14:09:53;28.40;79.90
30983;DHT22;17660;52.578;13.288;2023-08-21T14:12:20;28.40;80.00
30983;DHT22;17660;52.578;13.288;2023-08-21T14:14:46;28.30;79.80
30983;DHT22;17660;52.578;13.288;2023-08-21T14:17:13;28.20;78.90
30983;DHT22;17660;52.578;13.288;2023-08-21T14:19:39;28.20;82.50
30983;DHT22;17660;52.578;13.288;2023-08-21T14:22:06;28.20;80.90
30983;DHT22;17660;52.578;13.288;2023-08-21T14:24:33;28.20;81.30
30983;DHT22;17660;52.578;13.288;2023-08-21T14:26:59;28.10;75.50
30983;DHT22;17660;52.578;13.288;2023-08-21T14:29:26;28.10;76.50
30983;DHT22;17660;52.578;13.288;2023-08-21T14:31:52;28.10;74.70
30983;DHT22;17660;52.578;13.288;2023-08-21T14:34:23;28.20;80.30
30983;DHT22;17660;52.578;13.288;2023-08-21T14:36:50;28.40;79.00
30983;DHT22;17660;52.578;13.288;2023-08-21T14:39:16;28.50;79.10
30983;DHT22;17660;52.578;13.288;2023-08-21T14:41:43;28.80;80.00
30983;DHT22;17660;52.578;13.288;2023-08-21T14:44:10;29.00;82.30
30983;DHT22;17660;52.578;13.288;2023-08-21T14:46:37;29.20;82.10
30983;DHT22;17660;52.578;13.288;2023-08-21T14:49:09;29.30;79.40
30983;DHT22;17660;52.578;13.288;2023-08-21T14:51:35;29.40;78.00
30983;DHT22;17660;52.578;13.288;2023-08-21T14:54:02;29.50;77.40
30983;DHT22;17660;52.578;13.288;2023-08-21T14:56:29;29.70;77.00
30983;DHT22;17660;52.578;13.288;2023-08-21T14:58:56;29.70;76.20
30983;DHT22;17660;52.578;13.288;2023-08-21T15:01:23;29.70;77.30
30983;DHT22;17660;52.578;13.288;2023-08-21T15:03:50;29.40;82.00
30983;DHT22;17660;52.578;13.288;2023-08-21T15:06:17;29.30;79.10
30983;DHT22;17660;52.578;13.288;2023-08-21T15:08:43;29.00;81.30
30983;DHT22;17660;52.578;13.288;2023-08-21T15:11:10;28.80;79.20
30983;DHT22;17660;52.578;13.288;2023-08-21T15:13:37;28.70;79.00
30983;DHT22;17660;52.578;13.288;2023-08-21T15:16:03;28.50;79.20
30983;DHT22;17660;52.578;13.288;2023-08-21T15:18:30;28.40;81.80
30983;DHT22;17660;52.578;13.288;2023-08-21T15:20:57;28.30;80.00
30983;DHT22;17660;52.578;13.288;2023-08-21T15:23:23;28.20;83.50
30983;DHT22;17660;52.578;13.288;2023-08-21T15:25:50;28.20;81.60